This is the latest recevied weather packets stored in our database for station/object KD0SBN. If no packets are shown the sender has not sent any weather packets the latest 10 day(s).
| Time | Temp. | Humidity | Pressure | Rain* | Wind** | Luminosity | Snow |
|---|---|---|---|---|---|---|---|
| 1777811882 | 13.89° C | 36% | 1016.6 hPa | 0 mm | - | - | - |
| 1777811580 | 13.89° C | 37% | 1016.8 hPa | 0 mm | - | - | - |
| 1777811275 | 13.33° C | 38% | 1016.6 hPa | 0 mm | - | - | - |
| 1777810973 | 13.33° C | 38% | 1016.5 hPa | 0 mm | - | - | - |
| 1777810669 | 12.78° C | 38% | 1016.6 hPa | 0 mm | - | - | - |
| 1777810367 | 12.78° C | 39% | 1016.5 hPa | 0 mm | - | - | - |
| 1777810062 | 12.22° C | 39% | 1016.5 hPa | 0 mm | - | - | - |
| 1777809760 | 12.78° C | 40% | 1016.6 hPa | 0 mm | - | - | - |
| 1777809457 | 12.78° C | 39% | 1016.5 hPa | 0 mm | - | - | - |
| 1777809155 | 12.78° C | 39% | 1016.4 hPa | 0 mm | - | - | - |
| 1777808853 | 12.78° C | 39% | 1016.3 hPa | 0 mm | - | - | - |
| 1777808549 | 12.22° C | 40% | 1016.5 hPa | 0 mm | - | - | - |
| 1777808246 | 9.44° C | 45% | 1016.4 hPa | 0 mm | - | - | - |
| 1777807946 | 6.67° C | 58% | 1016.3 hPa | 0 mm | - | - | - |
| 1777807642 | 6.67° C | 61% | 1016.4 hPa | 0 mm | - | - | - |
| 1777807340 | 7.22° C | 63% | 1016.4 hPa | 0 mm | - | - | - |
| 1777807035 | 7.22° C | 59% | 1016.4 hPa | 0 mm | - | - | - |
| 1777806732 | 6.67° C | 60% | 1016.4 hPa | 0 mm | - | - | - |
| 1777806428 | 7.78° C | 61% | 1016.6 hPa | 0 mm | - | - | - |
| 1777806125 | 7.22° C | 59% | 1016.6 hPa | 0 mm | - | - | - |
| 1777805822 | 7.22° C | 60% | 1016.9 hPa | 0 mm | - | - | - |
| 1777805519 | 7.22° C | 59% | 1016.6 hPa | 0 mm | - | - | - |
| 1777805217 | 7.22° C | 58% | 1016.8 hPa | 0 mm | - | - | - |
| 1777804915 | 7.78° C | 57% | 1016.8 hPa | 0 mm | - | - | - |
| 1777804612 | 7.78° C | 58% | 1016.9 hPa | 0 mm | - | - | - |
* Rain latest hour (hover to see other rain measurements)
** Current wind speed in m/s (hover to see current wind gust speed)